Time;durP1;ratioP1;P1;durP2;ratioP2;P2;SDS_P1;SDS_P2;PMS_P1;PMS_P2;Temp;Humidity;BMP_temperature;BMP_pressure;BME280_temperature;BME280_humidity;BME280_pressure;Samples;Min_cycle;Max_cycle;Signal;HPM_P1;HPM_P2
2021/04/07 00:00:37;;;;;;;1.93;1.83;;;;;16.20;100171.00;;;;2069814;28;20216;-47
2021/04/07 00:01:38;;;;;;;1.70;1.60;;;;;16.20;100176.00;;;;2070473;28;20219;-45
2021/04/07 00:02:38;;;;;;;1.83;1.70;;;;;16.30;100183.00;;;;2071428;28;20212;-43
2021/04/07 00:03:38;;;;;;;1.90;1.70;;;;;16.30;100179.00;;;;2070296;28;20274;-45
2021/04/07 00:04:39;;;;;;;2.40;1.90;;;;;16.20;100177.00;;;;2071421;28;20779;-43
2021/04/07 00:05:41;;;;;;;2.80;1.77;;;;;16.20;100180.00;;;;2071563;28;20207;-43
2021/04/07 00:06:41;;;;;;;2.20;1.80;;;;;16.30;100176.00;;;;2071653;28;20206;-45
2021/04/07 00:07:43;;;;;;;1.90;1.70;;;;;16.20;100179.00;;;;2072813;28;20780;-46
2021/04/07 00:08:48;;;;;;;2.50;1.80;;;;;16.20;100173.00;;;;2071175;28;20203;-47
2021/04/07 00:09:48;;;;;;;1.92;1.80;;;;;16.30;100183.00;;;;2072044;28;20704;-46
2021/04/07 00:10:49;;;;;;;2.20;2.00;;;;;16.20;100177.00;;;;2073373;28;20211;-44
2021/04/07 00:11:49;;;;;;;2.40;2.20;;;;;16.20;100160.00;;;;2073392;28;20318;-43
2021/04/07 00:12:50;;;;;;;2.50;1.80;;;;;16.30;100177.00;;;;2070728;28;20223;-46
2021/04/07 00:13:50;;;;;;;1.70;1.60;;;;;16.20;100174.00;;;;2069935;28;20219;-44
2021/04/07 00:14:50;;;;;;;2.03;1.90;;;;;16.20;100172.00;;;;2071211;28;20261;-45
2021/04/07 00:15:51;;;;;;;1.67;1.57;;;;;16.20;100176.00;;;;2071386;28;20224;-44
2021/04/07 00:16:51;;;;;;;1.93;1.83;;;;;16.20;100181.00;;;;2070778;28;20216;-44
2021/04/07 00:17:52;;;;;;;2.30;2.10;;;;;16.20;100175.00;;;;2071709;28;20223;-43
2021/04/07 00:18:52;;;;;;;2.37;2.20;;;;;16.20;100166.00;;;;2071211;28;20219;-45
2021/04/07 00:19:52;;;;;;;1.97;1.80;;;;;16.20;100169.00;;;;2071067;28;20224;-46
2021/04/07 00:20:53;;;;;;;2.00;1.73;;;;;16.20;100181.00;;;;2071395;28;21729;-43
2021/04/07 00:21:53;;;;;;;2.03;1.90;;;;;16.20;100172.00;;;;2071423;28;20234;-42
2021/04/07 00:22:54;;;;;;;1.73;1.63;;;;;16.20;100174.00;;;;2071450;28;20262;-46
2021/04/07 00:23:54;;;;;;;2.00;1.80;;;;;16.20;100174.00;;;;2069921;28;20352;-46
2021/04/07 00:24:54;;;;;;;2.30;2.10;;;;;16.20;100170.00;;;;2071330;28;20223;-47
2021/04/07 00:25:55;;;;;;;1.77;1.67;;;;;16.20;100167.00;;;;2074057;28;20273;-44
2021/04/07 00:26:55;;;;;;;2.20;2.00;;;;;16.20;100170.00;;;;2079402;28;20277;-43
2021/04/07 00:28:01;;;;;;;2.13;1.70;;;;;16.20;100163.00;;;;2079398;28;20309;-42
2021/04/07 00:29:02;;;;;;;1.92;1.77;;;;;16.20;100161.00;;;;2079646;28;20233;-44
2021/04/07 00:30:04;;;;;;;1.98;1.80;;;;;16.20;100172.00;;;;2079240;28;20219;-44
2021/04/07 00:31:05;;;;;;;1.70;1.60;;;;;16.20;100168.00;;;;2079232;28;20983;-43
2021/04/07 00:32:05;;;;;;;1.57;1.43;;;;;16.20;100182.00;;;;2079029;28;20252;-47
2021/04/07 00:33:06;;;;;;;2.40;2.20;;;;;16.20;100162.00;;;;2077670;28;20239;-45
2021/04/07 00:34:06;;;;;;;1.73;1.63;;;;;16.20;100164.00;;;;2078780;28;20232;-46
2021/04/07 00:35:07;;;;;;;1.70;1.60;;;;;16.20;100163.00;;;;2079079;28;20224;-45
2021/04/07 00:36:08;;;;;;;1.80;1.70;;;;;16.20;100157.00;;;;2078927;28;20227;-43
2021/04/07 00:37:08;;;;;;;1.60;1.50;;;;;16.20;100169.00;;;;2078649;28;20294;-42
2021/04/07 00:38:10;;;;;;;1.50;1.40;;;;;16.20;100174.00;;;;2078882;28;20234;-47
2021/04/07 00:39:10;;;;;;;1.80;1.70;;;;;16.20;100163.00;;;;2077166;28;20309;-46
2021/04/07 00:40:11;;;;;;;1.47;1.37;;;;;16.20;100166.00;;;;2072570;28;20272;-44
2021/04/07 00:41:12;;;;;;;2.00;1.80;;;;;16.20;100166.00;;;;2071691;28;20614;-43
2021/04/07 00:42:13;;;;;;;2.30;1.70;;;;;16.20;100162.00;;;;2070272;28;20592;-47
2021/04/07 00:43:13;;;;;;;2.13;1.63;;;;;16.20;100157.00;;;;2069636;28;21164;-44
2021/04/07 00:44:13;;;;;;;2.23;1.87;;;;;16.20;100158.00;;;;2070619;28;20723;-43
2021/04/07 00:45:14;;;;;;;2.17;1.70;;;;;16.20;100112.00;;;;2070263;28;20901;-43
2021/04/07 00:46:14;;;;;;;1.80;1.70;;;;;16.20;100102.00;;;;2074649;28;20228;-47
2021/04/07 00:47:16;;;;;;;1.90;1.70;;;;;16.20;100172.00;;;;2077718;28;20875;-48
2021/04/07 00:48:17;;;;;;;1.67;1.58;;;;;16.20;100168.00;;;;2078568;28;20230;-45
2021/04/07 00:49:17;;;;;;;1.55;1.35;;;;;16.20;100166.00;;;;2077559;28;20908;-43
2021/04/07 00:50:18;;;;;;;1.70;1.60;;;;;16.20;100168.00;;;;2075023;28;20215;-44
2021/04/07 00:51:18;;;;;;;2.07;1.87;;;;;16.20;100173.00;;;;2070255;28;20219;-46
2021/04/07 00:52:19;;;;;;;2.10;1.90;;;;;16.20;100173.00;;;;2070651;28;20470;-47
2021/04/07 00:53:19;;;;;;;1.97;1.53;;;;;16.20;100166.00;;;;2069365;28;20225;-44
2021/04/07 00:54:20;;;;;;;2.07;1.70;;;;;16.20;100162.00;;;;2069754;28;20309;-43
2021/04/07 00:55:31;;;;;;;1.60;1.50;;;;;16.20;100170.00;;;;2070210;28;20694;-44
2021/04/07 00:56:32;;;;;;;2.00;1.73;;;;;16.20;100174.00;;;;2070345;28;20362;-43
2021/04/07 00:57:32;;;;;;;1.70;1.60;;;;;16.20;100171.00;;;;2057056;28;20670;-43
2021/04/07 00:58:33;;;;;;;1.80;1.70;;;;;16.20;100180.00;;;;2062082;28;20209;-43
2021/04/07 00:59:33;;;;;;;1.70;1.60;;;;;16.20;100176.00;;;;2062082;28;20233;-46
2021/04/07 01:00:33;;;;;;;1.57;1.47;;;;;16.20;100179.00;;;;2072985;28;20237;-47
2021/04/07 01:01:34;;;;;;;1.30;1.20;;;;;16.20;100181.00;;;;2076978;28;20222;-45
2021/04/07 01:02:34;;;;;;;2.10;1.87;;;;;16.20;100181.00;;;;2078241;28;20215;-46
2021/04/07 01:03:34;;;;;;;1.70;1.60;;;;;16.20;100174.00;;;;2076456;28;20215;-45
2021/04/07 01:04:35;;;;;;;2.17;1.60;;;;;16.20;100175.00;;;;2078873;28;20316;-45
2021/04/07 01:05:35;;;;;;;2.83;2.23;;;;;16.20;100171.00;;;;2070081;28;20693;-47
2021/04/07 01:06:36;;;;;;;2.00;1.60;;;;;16.20;100168.00;;;;2057841;28;21239;-46
2021/04/07 01:07:37;;;;;;;1.75;1.55;;;;;16.20;100172.00;;;;2069831;28;20765;-43
2021/04/07 01:08:37;;;;;;;1.80;1.70;;;;;15.90;100178.00;;;;2070219;28;20219;-42
2021/04/07 01:09:38;;;;;;;2.30;1.90;;;;;16.20;100178.00;;;;2073086;28;20241;-45
2021/04/07 01:10:38;;;;;;;1.77;1.67;;;;;16.20;100184.00;;;;2071258;28;20220;-44
2021/04/07 01:11:39;;;;;;;1.50;1.40;;;;;16.00;100183.00;;;;2071195;28;20271;-43
2021/04/07 01:12:40;;;;;;;1.50;1.20;;;;;16.10;100180.00;;;;2070311;28;20301;-45
2021/04/07 01:13:40;;;;;;;1.70;1.60;;;;;16.20;100181.00;;;;2069044;28;20589;-43
2021/04/07 01:14:40;;;;;;;1.30;1.20;;;;;16.20;100171.00;;;;2070544;28;20462;-43
2021/04/07 01:15:41;;;;;;;1.60;1.50;;;;;16.20;100175.00;;;;2069903;28;20204;-42
2021/04/07 01:16:41;;;;;;;1.70;1.60;;;;;16.10;100179.00;;;;2062582;28;20209;-43
2021/04/07 01:17:42;;;;;;;1.57;1.47;;;;;16.20;100178.00;;;;2067737;28;20220;-46
2021/04/07 01:18:42;;;;;;;1.87;1.77;;;;;16.20;100175.00;;;;2062520;28;20647;-43
2021/04/07 01:19:43;;;;;;;2.23;1.70;;;;;16.20;100187.00;;;;2069567;28;20682;-44
2021/04/07 01:20:43;;;;;;;2.00;1.60;;;;;16.20;100178.00;;;;2061340;28;21148;-46
2021/04/07 01:21:43;;;;;;;2.63;1.83;;;;;16.20;100180.00;;;;2069180;28;20211;-46
2021/04/07 01:22:48;;;;;;;1.80;1.47;;;;;16.20;100190.00;;;;2069126;28;20231;-47
2021/04/07 01:23:49;;;;;;;1.60;1.40;;;;;16.10;100175.00;;;;2061090;28;20225;-44
2021/04/07 01:24:49;;;;;;;2.10;1.90;;;;;16.10;100187.00;;;;2069736;28;20362;-43
2021/04/07 01:25:50;;;;;;;1.60;1.50;;;;;16.20;100184.00;;;;2070756;28;20581;-45
2021/04/07 01:26:50;;;;;;;3.30;1.70;;;;;16.10;100183.00;;;;2065830;28;20228;-45
2021/04/07 01:27:51;;;;;;;1.87;1.60;;;;;16.20;100189.00;;;;2061848;28;20303;-46
2021/04/07 01:28:51;;;;;;;2.20;1.63;;;;;16.20;100178.00;;;;2070802;28;20209;-42
2021/04/07 01:29:51;;;;;;;1.90;1.63;;;;;16.10;100186.00;;;;2070621;28;20212;-44
2021/04/07 01:30:52;;;;;;;2.03;1.83;;;;;16.10;100186.00;;;;2067684;28;20295;-45
2021/04/07 01:31:53;;;;;;;1.67;1.57;;;;;16.20;100187.00;;;;2069924;28;20204;-45
2021/04/07 01:32:54;;;;;;;2.53;1.92;;;;;16.20;100186.00;;;;2070721;28;21092;-44
2021/04/07 01:33:54;;;;;;;1.60;1.40;;;;;16.10;100185.00;;;;2069628;28;20208;-46
2021/04/07 01:34:54;;;;;;;1.47;1.37;;;;;16.20;100186.00;;;;2070422;28;20216;-43
2021/04/07 01:35:55;;;;;;;1.43;1.33;;;;;16.20;100186.00;;;;2070448;28;20307;-47
2021/04/07 01:36:56;;;;;;;2.70;1.53;;;;;16.10;100187.00;;;;2070546;28;20217;-46
2021/04/07 01:37:57;;;;;;;1.85;1.58;;;;;16.20;100188.00;;;;2069715;28;20267;-43
2021/04/07 01:38:57;;;;;;;1.70;1.60;;;;;16.20;100186.00;;;;2073171;28;20481;-43
2021/04/07 01:39:57;;;;;;;1.47;1.30;;;;;16.20;100183.00;;;;2071478;28;20221;-43
2021/04/07 01:40:58;;;;;;;1.70;1.60;;;;;16.10;100170.00;;;;2070717;28;20239;-44
2021/04/07 01:41:58;;;;;;;1.70;1.40;;;;;16.10;100187.00;;;;2061793;28;20316;-47
2021/04/07 01:42:59;;;;;;;1.70;1.60;;;;;16.10;100170.00;;;;2059480;28;20581;-44
2021/04/07 01:43:59;;;;;;;1.50;1.40;;;;;16.10;100184.00;;;;2069733;28;20728;-43
2021/04/07 01:45:00;;;;;;;1.60;1.50;;;;;16.10;100190.00;;;;2062068;28;20617;-43
2021/04/07 01:46:01;;;;;;;2.05;1.50;;;;;16.10;100188.00;;;;2069916;28;20222;-46
2021/04/07 01:47:01;;;;;;;2.60;1.60;;;;;16.10;100182.00;;;;2066218;28;20226;-43
2021/04/07 01:48:01;;;;;;;1.60;1.50;;;;;16.10;100185.00;;;;2056592;28;20271;-43
2021/04/07 01:49:03;;;;;;;1.93;1.80;;;;;16.10;100189.00;;;;2061748;28;20262;-43
2021/04/07 01:50:04;;;;;;;1.50;1.40;;;;;16.10;100181.00;;;;2069944;28;20211;-45
2021/04/07 01:51:05;;;;;;;2.10;1.40;;;;;16.10;100183.00;;;;2069406;28;20334;-47
2021/04/07 01:52:05;;;;;;;1.80;1.50;;;;;16.10;100173.00;;;;2061595;28;20217;-47
2021/04/07 01:53:05;;;;;;;1.37;1.27;;;;;16.10;100181.00;;;;2060911;28;20414;-43
2021/04/07 01:54:10;;;;;;;2.40;1.70;;;;;16.10;100187.00;;;;2066206;28;20224;-43
2021/04/07 01:55:11;;;;;;;1.40;1.30;;;;;16.10;100190.00;;;;2078864;28;20215;-43
2021/04/07 01:56:11;;;;;;;1.23;1.10;;;;;16.10;100182.00;;;;2077896;28;20219;-44
2021/04/07 01:57:11;;;;;;;2.20;1.67;;;;;16.10;100188.00;;;;2078049;28;20761;-43
2021/04/07 01:58:12;;;;;;;2.03;1.70;;;;;16.20;100181.00;;;;2077478;28;20882;-42
2021/04/07 01:59:12;;;;;;;1.53;1.43;;;;;16.10;100194.00;;;;2078626;28;20241;-42
2021/04/07 02:00:15;;;;;;;1.63;1.50;;;;;16.10;100181.00;;;;2078663;28;20228;-46
2021/04/07 02:01:16;;;;;;;1.70;1.60;;;;;16.10;100183.00;;;;2078523;28;20334;-43
2021/04/07 02:02:16;;;;;;;1.97;1.47;;;;;16.10;100182.00;;;;2078492;28;20849;-47
2021/04/07 02:03:17;;;;;;;2.83;1.50;;;;;16.10;100180.00;;;;2077259;28;20636;-43
2021/04/07 02:04:17;;;;;;;1.63;1.53;;;;;16.10;100180.00;;;;2077031;28;20225;-46
2021/04/07 02:05:18;;;;;;;1.70;1.60;;;;;16.10;100186.00;;;;2075652;28;20227;-43
2021/04/07 02:06:18;;;;;;;1.83;1.50;;;;;16.10;100186.00;;;;2078062;28;20217;-43
2021/04/07 02:07:18;;;;;;;1.80;1.63;;;;;16.10;100189.00;;;;2078299;28;20294;-44
2021/04/07 02:08:19;;;;;;;1.60;1.20;;;;;16.10;100180.00;;;;2071807;28;20566;-44
2021/04/07 02:09:19;;;;;;;1.43;1.33;;;;;16.10;100191.00;;;;2072401;28;20300;-46
2021/04/07 02:10:20;;;;;;;1.50;1.40;;;;;16.10;100182.00;;;;2073724;28;20212;-44
2021/04/07 02:11:20;;;;;;;1.60;1.50;;;;;16.10;100186.00;;;;2073604;28;20340;-48
2021/04/07 02:12:20;;;;;;;2.07;1.73;;;;;16.10;100187.00;;;;2070149;28;20213;-46
2021/04/07 02:13:21;;;;;;;1.67;1.40;;;;;16.10;100127.00;;;;2069174;28;20216;-46
2021/04/07 02:14:22;;;;;;;1.60;1.50;;;;;16.10;100198.00;;;;2069977;28;20223;-46
2021/04/07 02:15:23;;;;;;;2.65;1.80;;;;;16.10;100184.00;;;;2070477;28;20218;-47
2021/04/07 02:16:23;;;;;;;1.50;1.40;;;;;16.10;100183.00;;;;2070369;28;20211;-45
2021/04/07 02:17:24;;;;;;;2.43;1.70;;;;;16.10;100187.00;;;;2070495;28;20234;-46
2021/04/07 02:18:25;;;;;;;1.50;1.40;;;;;16.10;100194.00;;;;2070056;28;20332;-44
2021/04/07 02:19:26;;;;;;;1.93;1.43;;;;;16.10;100194.00;;;;2070024;28;20263;-43
2021/04/07 02:20:26;;;;;;;1.80;1.70;;;;;16.10;100182.00;;;;2069999;28;20458;-42
2021/04/07 02:21:27;;;;;;;2.17;1.50;;;;;16.20;100185.00;;;;2070067;28;20219;-44
2021/04/07 02:22:27;;;;;;;1.80;1.60;;;;;16.10;100190.00;;;;2070559;28;20211;-43
2021/04/07 02:23:27;;;;;;;1.50;1.40;;;;;16.10;100175.00;;;;2073174;28;20291;-47
2021/04/07 02:24:28;;;;;;;1.70;1.53;;;;;16.10;100187.00;;;;2077975;28;20762;-45
2021/04/07 02:25:28;;;;;;;1.60;1.40;;;;;16.10;100181.00;;;;2078114;28;20238;-44
2021/04/07 02:26:30;;;;;;;2.10;1.73;;;;;16.10;100189.00;;;;2078229;28;21047;-43
2021/04/07 02:27:31;;;;;;;2.28;1.75;;;;;16.10;100181.00;;;;2072051;28;20269;-45
2021/04/07 02:28:32;;;;;;;1.70;1.60;;;;;16.10;100183.00;;;;2070089;28;20216;-45
2021/04/07 02:29:33;;;;;;;1.50;1.40;;;;;16.10;100181.00;;;;2070170;28;20263;-44
2021/04/07 02:30:33;;;;;;;2.57;1.70;;;;;16.10;100176.00;;;;2070282;28;20345;-43
2021/04/07 02:31:33;;;;;;;1.67;1.43;;;;;16.10;100178.00;;;;2070411;28;20222;-47
2021/04/07 02:32:34;;;;;;;1.63;1.53;;;;;16.10;100192.00;;;;2070460;28;20207;-46
2021/04/07 02:33:35;;;;;;;1.70;1.50;;;;;16.10;100184.00;;;;2069262;28;21167;-47
2021/04/07 02:34:36;;;;;;;1.67;1.58;;;;;16.10;100181.00;;;;2069681;28;20250;-43
2021/04/07 02:35:36;;;;;;;1.83;1.53;;;;;16.10;100175.00;;;;2070066;28;20266;-44
2021/04/07 02:36:37;;;;;;;1.57;1.23;;;;;16.10;100167.00;;;;2070203;28;20212;-43
2021/04/07 02:37:37;;;;;;;2.00;1.33;;;;;16.10;100172.00;;;;2069981;28;20214;-42
2021/04/07 02:38:37;;;;;;;1.47;1.37;;;;;16.10;100173.00;;;;2070558;28;20225;-42
2021/04/07 02:39:38;;;;;;;1.50;1.40;;;;;16.10;100193.00;;;;2075121;28;20212;-44
2021/04/07 02:40:38;;;;;;;1.93;1.73;;;;;16.00;100174.00;;;;2073298;28;20208;-47
2021/04/07 02:41:38;;;;;;;1.57;1.47;;;;;16.10;100180.00;;;;2072171;28;20302;-43
2021/04/07 02:42:39;;;;;;;1.57;1.37;;;;;16.10;100177.00;;;;2070149;28;20211;-43
2021/04/07 02:43:39;;;;;;;1.70;1.20;;;;;16.10;100170.00;;;;2069027;28;20209;-43
2021/04/07 02:44:40;;;;;;;1.67;1.47;;;;;16.10;100171.00;;;;2070140;28;20206;-47
2021/04/07 02:45:40;;;;;;;1.93;1.50;;;;;16.10;100177.00;;;;2068842;28;20216;-43
2021/04/07 02:46:41;;;;;;;1.53;1.43;;;;;16.10;100169.00;;;;2070388;28;20206;-44
2021/04/07 02:47:41;;;;;;;1.47;1.37;;;;;16.10;100171.00;;;;2070206;28;20212;-43
2021/04/07 02:48:41;;;;;;;1.67;1.57;;;;;16.10;100170.00;;;;2070449;28;20204;-47
2021/04/07 02:49:42;;;;;;;1.90;1.43;;;;;16.10;100165.00;;;;2069926;28;20209;-47
2021/04/07 02:50:42;;;;;;;2.10;1.57;;;;;16.10;100191.00;;;;2070178;28;20220;-42
2021/04/07 02:51:42;;;;;;;1.57;1.20;;;;;16.10;100160.00;;;;2069960;28;20694;-45
2021/04/07 02:52:43;;;;;;;1.30;1.20;;;;;16.10;100166.00;;;;2069714;28;20227;-44
2021/04/07 02:53:43;;;;;;;1.57;1.43;;;;;16.10;100169.00;;;;2068185;28;20790;-43
2021/04/07 02:54:43;;;;;;;1.80;1.50;;;;;16.10;100158.00;;;;2069411;28;20246;-44
2021/04/07 02:55:44;;;;;;;2.27;1.50;;;;;16.10;100168.00;;;;2069733;28;20751;-44
2021/04/07 02:56:44;;;;;;;2.40;1.37;;;;;16.10;100186.00;;;;2069390;28;20731;-45
2021/04/07 02:57:45;;;;;;;1.60;1.50;;;;;16.10;100171.00;;;;2069606;28;20235;-46
2021/04/07 02:58:45;;;;;;;2.27;1.70;;;;;16.10;100177.00;;;;2069706;28;20265;-44
2021/04/07 02:59:45;;;;;;;1.40;1.30;;;;;16.10;100163.00;;;;2069872;28;20216;-44
2021/04/07 03:00:46;;;;;;;1.97;1.33;;;;;16.10;100175.00;;;;2069592;28;20216;-44
2021/04/07 03:01:46;;;;;;;1.53;1.43;;;;;16.10;100171.00;;;;2069885;28;20223;-44
2021/04/07 03:02:46;;;;;;;1.40;1.30;;;;;16.10;100181.00;;;;2070109;28;20273;-46
2021/04/07 03:03:47;;;;;;;1.70;1.40;;;;;16.10;100172.00;;;;2070148;28;20302;-45
2021/04/07 03:04:47;;;;;;;1.40;1.30;;;;;16.10;100170.00;;;;2076464;28;20217;-45
2021/04/07 03:05:47;;;;;;;2.77;1.63;;;;;16.10;100167.00;;;;2078345;28;21022;-46
2021/04/07 03:06:48;;;;;;;1.97;1.70;;;;;16.10;100168.00;;;;2077300;28;20840;-44
2021/04/07 03:07:48;;;;;;;2.10;1.87;;;;;16.10;100175.00;;;;2074553;28;20269;-44
2021/04/07 03:08:48;;;;;;;2.27;1.40;;;;;16.10;100190.00;;;;2070721;28;20225;-47
2021/04/07 03:09:49;;;;;;;2.23;1.80;;;;;16.00;100178.00;;;;2073137;28;20219;-46
2021/04/07 03:10:49;;;;;;;2.47;1.97;;;;;16.00;100188.00;;;;2072134;28;20228;-43
2021/04/07 03:11:50;;;;;;;2.20;1.40;;;;;16.10;100180.00;;;;2073566;28;20311;-42
2021/04/07 03:12:50;;;;;;;1.63;1.50;;;;;16.00;100183.00;;;;2070038;28;20298;-42
2021/04/07 03:13:50;;;;;;;1.50;1.40;;;;;16.00;100175.00;;;;2068855;28;20228;-44
2021/04/07 03:14:51;;;;;;;2.47;1.80;;;;;15.90;100178.00;;;;2069896;28;20572;-47
2021/04/07 03:15:51;;;;;;;2.07;1.77;;;;;16.00;100171.00;;;;2070731;28;20265;-44
2021/04/07 03:16:52;;;;;;;1.73;1.40;;;;;16.10;100172.00;;;;2078269;28;20353;-43
2021/04/07 03:17:52;;;;;;;1.87;1.77;;;;;16.10;100167.00;;;;2077935;28;20236;-44
2021/04/07 03:18:52;;;;;;;2.07;1.80;;;;;16.00;100168.00;;;;2077869;28;20214;-45
2021/04/07 03:19:53;;;;;;;2.03;1.83;;;;;16.00;100169.00;;;;2077099;28;20301;-45
2021/04/07 03:20:53;;;;;;;1.30;1.20;;;;;16.00;100178.00;;;;2077247;28;20229;-46
2021/04/07 03:21:54;;;;;;;1.73;1.30;;;;;16.10;100174.00;;;;2078079;28;20218;-46
2021/04/07 03:22:54;;;;;;;1.83;1.67;;;;;16.10;100165.00;;;;2077963;28;20241;-44
2021/04/07 03:23:54;;;;;;;1.50;1.40;;;;;16.00;100168.00;;;;2077208;28;20215;-46
2021/04/07 03:24:55;;;;;;;2.00;1.50;;;;;16.00;100160.00;;;;2077853;28;20854;-45
2021/04/07 03:25:55;;;;;;;1.83;1.70;;;;;16.00;100172.00;;;;2077313;28;20639;-47
2021/04/07 03:26:56;;;;;;;2.57;1.40;;;;;16.00;100180.00;;;;2077630;28;20239;-44
2021/04/07 03:27:56;;;;;;;1.67;1.30;;;;;16.00;100174.00;;;;2078038;28;20237;-44
2021/04/07 03:28:56;;;;;;;1.83;1.53;;;;;16.00;100159.00;;;;2077896;28;20214;-45
2021/04/07 03:29:59;;;;;;;1.53;1.37;;;;;16.00;100163.00;;;;2077837;28;20253;-42
2021/04/07 03:30:59;;;;;;;1.38;1.27;;;;;16.00;100164.00;;;;2077981;28;20210;-46
2021/04/07 03:32:00;;;;;;;2.03;1.50;;;;;16.10;100163.00;;;;2077932;28;20225;-44
2021/04/07 03:33:00;;;;;;;2.00;1.63;;;;;16.00;100169.00;;;;2075850;28;20211;-47
2021/04/07 03:34:01;;;;;;;1.77;1.50;;;;;16.00;100168.00;;;;2077999;28;20220;-43
2021/04/07 03:35:01;;;;;;;2.07;1.63;;;;;16.00;100169.00;;;;2077623;28;20289;-47
2021/04/07 03:36:03;;;;;;;1.60;1.50;;;;;16.00;100176.00;;;;2078577;28;20207;-47
2021/04/07 03:37:04;;;;;;;1.73;1.63;;;;;16.00;100168.00;;;;2078902;28;20738;-44
2021/04/07 03:38:04;;;;;;;1.47;1.37;;;;;16.00;100186.00;;;;2079524;28;20215;-44
2021/04/07 03:39:05;;;;;;;2.13;1.30;;;;;16.10;100161.00;;;;2077593;28;20693;-45
2021/04/07 03:40:05;;;;;;;1.57;1.47;;;;;16.00;100167.00;;;;2073711;28;20866;-44
2021/04/07 03:41:06;;;;;;;2.13;1.63;;;;;16.00;100170.00;;;;2072421;28;20306;-45
2021/04/07 03:42:06;;;;;;;1.77;1.67;;;;;16.00;100172.00;;;;2071449;28;20463;-43
2021/04/07 03:43:07;;;;;;;2.37;1.60;;;;;16.00;100167.00;;;;2070256;28;20278;-43
2021/04/07 03:44:07;;;;;;;1.70;1.60;;;;;16.00;100171.00;;;;2071465;28;20258;-42
2021/04/07 03:45:08;;;;;;;1.63;1.47;;;;;16.00;100167.00;;;;2071259;28;20277;-42
2021/04/07 03:46:08;;;;;;;1.73;1.20;;;;;16.00;100173.00;;;;2070382;28;20223;-44
2021/04/07 03:47:09;;;;;;;2.07;1.63;;;;;16.00;100172.00;;;;2070149;28;20489;-45
2021/04/07 03:48:11;;;;;;;1.97;1.60;;;;;16.00;100101.00;;;;2071115;28;20224;-44
2021/04/07 03:49:11;;;;;;;1.70;1.60;;;;;16.00;100170.00;;;;2071558;28;20228;-44
2021/04/07 03:50:11;;;;;;;1.73;1.60;;;;;16.10;100168.00;;;;2071332;28;20220;-43
2021/04/07 03:51:12;;;;;;;1.73;1.60;;;;;16.00;100168.00;;;;2071525;28;20225;-42
2021/04/07 03:52:12;;;;;;;1.50;1.40;;;;;16.10;100180.00;;;;2071212;28;20227;-46
2021/04/07 03:53:13;;;;;;;1.87;1.67;;;;;16.10;100172.00;;;;2070191;28;20229;-46
2021/04/07 03:54:13;;;;;;;1.47;1.37;;;;;16.00;100172.00;;;;2071649;28;20223;-44
2021/04/07 03:55:13;;;;;;;1.70;1.53;;;;;16.00;100173.00;;;;2071105;28;20306;-43
2021/04/07 03:56:14;;;;;;;1.67;1.57;;;;;16.00;100164.00;;;;2071484;28;20280;-45
2021/04/07 03:57:14;;;;;;;1.50;1.13;;;;;16.00;100165.00;;;;2071562;28;20223;-44
2021/04/07 03:58:14;;;;;;;1.40;1.30;;;;;16.00;100174.00;;;;2071272;28;20222;-46
2021/04/07 03:59:15;;;;;;;1.60;1.50;;;;;16.00;100166.00;;;;2071229;28;20247;-47
2021/04/07 04:00:16;;;;;;;1.50;1.40;;;;;16.00;100173.00;;;;2071349;28;20218;-45
2021/04/07 04:01:16;;;;;;;2.13;1.50;;;;;16.00;100172.00;;;;2071190;28;20903;-44
2021/04/07 04:02:16;;;;;;;1.67;1.50;;;;;16.00;100166.00;;;;2064350;28;20214;-47
2021/04/07 04:03:17;;;;;;;1.93;1.60;;;;;16.00;100178.00;;;;2070078;28;20220;-47
2021/04/07 04:04:17;;;;;;;2.00;1.80;;;;;16.00;100176.00;;;;2071587;28;20215;-43
2021/04/07 04:05:17;;;;;;;1.60;1.50;;;;;16.00;100174.00;;;;2071591;28;20213;-42
2021/04/07 04:06:18;;;;;;;1.70;1.60;;;;;16.00;100180.00;;;;2070955;28;20217;-43
2021/04/07 04:07:18;;;;;;;1.90;1.70;;;;;16.00;100174.00;;;;2071773;28;20205;-42
2021/04/07 04:08:18;;;;;;;1.30;1.20;;;;;16.00;100173.00;;;;2074632;28;20216;-47
2021/04/07 04:09:19;;;;;;;1.60;1.50;;;;;16.00;100179.00;;;;2074700;28;20282;-46
2021/04/07 04:10:19;;;;;;;1.97;1.77;;;;;16.00;100176.00;;;;2072771;28;20202;-43
2021/04/07 04:11:19;;;;;;;1.60;1.37;;;;;16.00;100175.00;;;;2071898;28;20628;-43
2021/04/07 04:12:20;;;;;;;2.00;1.70;;;;;16.00;100178.00;;;;2071225;28;20275;-42
2021/04/07 04:13:20;;;;;;;1.70;1.60;;;;;16.00;100183.00;;;;2070198;28;20239;-42
2021/04/07 04:14:20;;;;;;;1.90;1.57;;;;;16.00;100180.00;;;;2071136;28;20681;-46
2021/04/07 04:15:21;;;;;;;1.87;1.77;;;;;16.00;100175.00;;;;2071168;28;20223;-47
2021/04/07 04:16:21;;;;;;;1.67;1.50;;;;;16.00;100174.00;;;;2071343;28;20213;-43
2021/04/07 04:17:22;;;;;;;1.40;1.30;;;;;16.00;100183.00;;;;2071144;28;20227;-43
2021/04/07 04:18:22;;;;;;;1.70;1.60;;;;;16.00;100178.00;;;;2071074;28;20208;-44
2021/04/07 04:19:22;;;;;;;1.77;1.50;;;;;16.00;100180.00;;;;2070989;28;20214;-43
2021/04/07 04:20:23;;;;;;;2.07;1.60;;;;;16.00;100169.00;;;;2075283;28;20215;-47
2021/04/07 04:21:23;;;;;;;2.10;1.90;;;;;16.00;100177.00;;;;2079315;28;20210;-45
2021/04/07 04:22:23;;;;;;;1.60;1.50;;;;;16.00;100173.00;;;;2079105;28;20761;-46
2021/04/07 04:23:23;;;;;;;1.67;1.57;;;;;16.00;100179.00;;;;2077740;28;20969;-44
2021/04/07 04:24:24;;;;;;;1.83;1.50;;;;;16.00;100179.00;;;;2079262;28;20364;-44
2021/04/07 04:25:24;;;;;;;1.93;1.67;;;;;16.00;100184.00;;;;2078507;28;20288;-44
2021/04/07 04:26:24;;;;;;;2.17;1.83;;;;;16.00;100178.00;;;;2078631;28;20219;-44
2021/04/07 04:27:25;;;;;;;1.93;1.70;;;;;16.00;100182.00;;;;2079117;28;20237;-45
2021/04/07 04:28:25;;;;;;;1.70;1.60;;;;;16.00;100182.00;;;;2079357;28;20310;-45
2021/04/07 04:29:26;;;;;;;2.03;1.77;;;;;16.00;100184.00;;;;2079145;28;20211;-43
2021/04/07 04:30:29;;;;;;;1.70;1.60;;;;;16.00;100184.00;;;;2079202;28;20219;-43
2021/04/07 04:31:30;;;;;;;1.70;1.60;;;;;16.00;100179.00;;;;2078589;28;20228;-44
2021/04/07 04:32:31;;;;;;;2.13;1.88;;;;;16.00;100174.00;;;;2079241;28;20253;-43
2021/04/07 04:33:31;;;;;;;2.20;2.00;;;;;16.00;100181.00;;;;2078078;28;20687;-46
2021/04/07 04:34:32;;;;;;;1.73;1.63;;;;;16.00;100183.00;;;;2079180;28;20223;-44
2021/04/07 04:35:32;;;;;;;2.07;1.53;;;;;16.00;100179.00;;;;2078984;28;20215;-43
2021/04/07 04:36:32;;;;;;;1.63;1.50;;;;;16.00;100178.00;;;;2079285;28;20723;-44
2021/04/07 04:37:33;;;;;;;1.63;1.53;;;;;16.00;100169.00;;;;2079348;28;20217;-43
2021/04/07 04:38:33;;;;;;;1.83;1.73;;;;;16.00;100172.00;;;;2079395;28;20681;-44
2021/04/07 04:39:33;;;;;;;2.00;1.77;;;;;16.00;100167.00;;;;2074575;28;20240;-46
2021/04/07 04:40:34;;;;;;;2.03;1.83;;;;;16.00;100172.00;;;;2071553;28;20212;-44
2021/04/07 04:41:34;;;;;;;2.13;1.70;;;;;16.00;100173.00;;;;2070346;28;20219;-44
2021/04/07 04:42:34;;;;;;;1.73;1.53;;;;;16.00;100172.00;;;;2069371;28;20306;-44
2021/04/07 04:43:35;;;;;;;2.37;1.80;;;;;16.00;100173.00;;;;2069421;28;20211;-43
2021/04/07 04:44:35;;;;;;;1.77;1.67;;;;;16.00;100169.00;;;;2070545;28;20255;-43
2021/04/07 04:45:36;;;;;;;2.23;2.13;;;;;16.00;100174.00;;;;2070657;28;20226;-45
2021/04/07 04:46:36;;;;;;;1.97;1.63;;;;;16.00;100175.00;;;;2071107;28;20576;-43
2021/04/07 04:47:36;;;;;;;1.87;1.70;;;;;16.00;100176.00;;;;2070601;28;20282;-44
2021/04/07 04:48:37;;;;;;;1.70;1.60;;;;;16.00;100177.00;;;;2076148;28;20208;-42
2021/04/07 04:49:37;;;;;;;1.60;1.50;;;;;16.00;100168.00;;;;2078386;28;20215;-43
2021/04/07 04:50:37;;;;;;;1.73;1.63;;;;;16.00;100180.00;;;;2079210;28;20706;-43
2021/04/07 04:51:38;;;;;;;2.63;2.10;;;;;16.00;100173.00;;;;2078784;28;20688;-46
2021/04/07 04:52:38;;;;;;;1.80;1.70;;;;;16.00;100177.00;;;;2076702;28;20221;-44
2021/04/07 04:53:38;;;;;;;2.20;1.90;;;;;16.00;100176.00;;;;2077779;28;20638;-43
2021/04/07 04:54:39;;;;;;;1.70;1.60;;;;;16.00;100171.00;;;;2078718;28;20593;-43
2021/04/07 04:55:39;;;;;;;1.90;1.77;;;;;16.00;100169.00;;;;2079119;28;20684;-43
2021/04/07 04:56:40;;;;;;;2.60;1.80;;;;;16.00;100171.00;;;;2079285;28;20214;-44
2021/04/07 04:57:40;;;;;;;2.00;1.90;;;;;15.90;100167.00;;;;2078113;28;20269;-45
2021/04/07 04:58:40;;;;;;;2.00;1.80;;;;;16.00;100164.00;;;;2076013;28;20209;-44
2021/04/07 04:59:41;;;;;;;2.10;1.93;;;;;16.00;100173.00;;;;2078658;28;20684;-43